createdAt,value
2018-07-25T00:44:34.449Z,5.37
2018-07-25T00:47:02.598Z,5.57
2018-07-25T00:49:30.833Z,5.30
2018-07-25T00:51:59.134Z,5.03
2018-07-25T00:54:27.385Z,5.97
2018-07-25T00:56:55.597Z,5.20
2018-07-25T00:59:27.007Z,5.43
2018-07-25T01:01:55.503Z,5.60
2018-07-25T01:04:23.862Z,5.07
2018-07-25T01:06:52.172Z,4.70
2018-07-25T01:09:20.464Z,4.67
2018-07-25T01:11:48.794Z,4.67
2018-07-25T01:14:17.109Z,5.63
2018-07-25T01:16:45.404Z,4.57
2018-07-25T01:19:13.764Z,4.50
2018-07-25T01:21:42.001Z,5.40
2018-07-25T01:24:10.286Z,4.50
2018-07-25T01:26:38.640Z,5.10
2018-07-25T01:29:06.975Z,5.10
2018-07-25T01:31:35.159Z,5.20
2018-07-25T01:34:03.529Z,5.07
2018-07-25T01:36:31.855Z,5.13
2018-07-25T01:39:00.206Z,5.90
2018-07-25T01:41:28.509Z,5.77
2018-07-25T01:43:56.864Z,5.70
2018-07-25T01:46:28.075Z,5.60
2018-07-25T01:48:56.438Z,5.80
2018-07-25T01:51:24.886Z,5.67
2018-07-25T01:53:53.194Z,5.37
2018-07-25T01:56:21.515Z,5.03
2018-07-25T01:58:49.860Z,5.37
2018-07-25T02:01:18.338Z,5.90
2018-07-25T02:03:47.134Z,4.63
2018-07-25T02:06:15.493Z,5.70
2018-07-25T02:08:43.795Z,5.17
2018-07-25T02:11:12.052Z,5.40
2018-07-25T02:13:40.255Z,5.10
2018-07-25T02:16:08.475Z,4.77
2018-07-25T02:18:36.707Z,5.30
2018-07-25T02:21:04.920Z,5.20
2018-07-25T02:23:33.287Z,5.80
2018-07-25T02:26:01.666Z,5.93
2018-07-25T10:28:58.368Z,4.57
2018-07-25T10:31:26.598Z,4.50
2018-07-25T10:33:54.788Z,4.30
2018-07-25T10:36:23.151Z,4.10
2018-07-25T10:38:51.443Z,4.03
2018-07-25T10:41:19.715Z,4.27
2018-07-25T10:43:48.096Z,3.97
2018-07-25T10:46:16.321Z,4.10
2018-07-25T10:48:44.531Z,3.70
2018-07-25T10:51:12.780Z,3.87
2018-07-25T10:53:41.002Z,3.87
2018-07-25T10:56:09.241Z,4.07
2018-07-25T10:58:37.551Z,4.37
2018-07-25T11:01:05.766Z,4.03
2018-07-25T11:03:33.994Z,3.63
2018-07-25T11:06:02.324Z,4.07
2018-07-25T11:08:30.629Z,4.00
2018-07-25T11:10:58.839Z,3.93
2018-07-25T11:13:27.113Z,3.77
2018-07-25T11:15:55.316Z,4.40
2018-07-25T11:18:23.572Z,4.07
2018-07-25T11:20:51.832Z,3.83
2018-07-25T11:23:20.124Z,4.10
2018-07-25T11:25:48.411Z,3.70
2018-07-25T11:28:16.663Z,3.80
2018-07-25T11:30:44.893Z,4.03
2018-07-25T11:33:13.152Z,4.00
2018-07-25T11:35:41.431Z,3.93
2018-07-25T11:38:12.733Z,4.10
2018-07-25T11:40:40.974Z,4.27
2018-07-25T11:43:09.232Z,3.73
2018-07-25T11:45:37.550Z,4.17
2018-07-25T11:48:05.831Z,4.47
2018-07-25T11:50:34.151Z,3.97
2018-07-25T11:53:02.435Z,3.93
2018-07-25T11:55:30.710Z,4.60
2018-07-25T11:57:58.932Z,4.30
2018-07-25T12:00:27.168Z,3.97
2018-07-25T12:02:55.414Z,3.90
2018-07-25T12:05:23.742Z,3.83
2018-07-25T12:07:52.721Z,4.00
2018-07-25T12:10:23.970Z,4.03
2018-07-25T12:12:53.425Z,4.60
2018-07-25T12:15:21.690Z,3.97
2018-07-25T12:17:49.878Z,4.13
2018-07-25T12:20:18.121Z,3.50
2018-07-25T12:22:49.530Z,3.97
2018-07-25T12:25:17.800Z,4.37
2018-07-25T12:27:45.974Z,4.37
2018-07-25T12:30:14.244Z,3.90
2018-07-25T12:32:42.637Z,3.47
2018-07-25T12:35:10.915Z,3.97
2018-07-25T12:37:39.110Z,3.70
2018-07-25T12:40:07.527Z,3.90
2018-07-25T12:42:35.747Z,3.60
2018-07-25T12:45:04.027Z,3.93
2018-07-25T12:47:32.346Z,3.70
2018-07-25T12:50:00.544Z,3.40
2018-07-25T12:52:28.794Z,3.10
2018-07-25T12:54:57.098Z,3.17
2018-07-25T12:57:25.313Z,3.57
